Time;durP1;ratioP1;P1;durP2;ratioP2;P2;SDS_P1;SDS_P2;PMS_P1;PMS_P2;Temp;Humidity;BMP_temperature;BMP_pressure;BME280_temperature;BME280_humidity;BME280_pressure;Samples;Min_cycle;Max_cycle;Signal;HPM_P1;HPM_P2
2022/05/04 04:02:39;;;;;;;7.45;3.72;;;4.90;99.90;;;;;;4954904;29;20200;-69
2022/05/04 04:05:07;;;;;;;4.75;3.88;;;4.90;99.90;;;;;;4955081;28;20248;-69
2022/05/04 04:07:33;;;;;;;4.72;4.32;;;5.00;99.90;;;;;;4956334;28;20212;-69
2022/05/04 04:10:00;;;;;;;5.13;3.80;;;5.10;99.90;;;;;;4955405;28;20213;-69
2022/05/04 04:12:26;;;;;;;4.57;4.15;;;5.20;99.90;;;;;;4956575;28;20226;-69
2022/05/04 04:14:53;;;;;;;4.47;3.70;;;5.20;99.90;;;;;;4955551;28;20209;-69
2022/05/04 04:17:20;;;;;;;4.28;3.50;;;5.30;99.90;;;;;;4955776;28;20257;-69
2022/05/04 04:21:50;;;;;;;4.20;3.70;;;5.30;99.90;;;;;;4954187;28;20279;-69
2022/05/04 04:22:34;;;;;;;4.55;3.92;;;5.40;99.90;;;;;;4955284;29;20235;-69
2022/05/04 04:25:01;;;;;;;9.53;3.97;;;5.50;99.90;;;;;;4955537;28;20213;-70
2022/05/04 04:27:27;;;;;;;4.90;3.22;;;5.60;99.90;;;;;;4955563;28;20205;-70
2022/05/04 04:29:54;;;;;;;4.78;3.70;;;5.60;99.90;;;;;;4955211;28;20716;-70
2022/05/04 04:32:21;;;;;;;3.55;3.30;;;5.60;99.90;;;;;;4954978;28;20602;-70
2022/05/04 04:34:49;;;;;;;8.85;4.38;;;5.70;99.90;;;;;;4954410;28;20654;-70
2022/05/04 04:37:15;;;;;;;3.83;3.55;;;5.70;99.90;;;;;;4954837;28;20229;-70
2022/05/04 04:39:42;;;;;;;13.63;5.70;;;5.90;99.90;;;;;;4953397;28;20646;-70
2022/05/04 04:42:12;;;;;;;5.65;3.97;;;6.20;99.90;;;;;;4966084;28;20324;-70
2022/05/04 04:44:39;;;;;;;7.55;4.07;;;6.80;99.90;;;;;;4973950;28;20208;-70
2022/05/04 04:47:06;;;;;;;5.80;3.90;;;7.30;99.90;;;;;;4974419;28;20534;-70
2022/05/04 04:49:33;;;;;;;4.10;3.38;;;7.80;99.90;;;;;;4973624;28;20232;-70
2022/05/04 04:52:02;;;;;;;4.47;4.18;;;8.30;99.90;;;;;;4973153;28;20232;-70
2022/05/04 04:54:28;;;;;;;3.75;3.40;;;8.60;99.90;;;;;;4973820;28;20255;-70
2022/05/04 04:56:55;;;;;;;5.72;3.42;;;9.00;99.90;;;;;;4972399;28;20270;-71
2022/05/04 04:59:22;;;;;;;7.43;3.77;;;9.40;99.90;;;;;;4973742;28;20208;-70
2022/05/04 05:01:48;;;;;;;4.90;3.70;;;9.70;99.90;;;;;;4972921;28;21024;-68
2022/05/04 05:04:15;;;;;;;3.90;3.60;;;9.90;99.90;;;;;;4973641;28;20538;-68
2022/05/04 05:06:41;;;;;;;5.40;3.63;;;10.10;99.90;;;;;;4972716;28;20464;-68
2022/05/04 05:09:09;;;;;;;3.73;3.53;;;9.90;99.90;;;;;;4973731;28;20495;-69
2022/05/04 05:11:36;;;;;;;4.83;4.13;;;9.60;99.90;;;;;;4972884;28;20523;-69
2022/05/04 05:16:48;;;;;;;5.35;5.00;;;9.20;99.90;;;;;;4973432;28;20203;-69
2022/05/04 05:19:14;;;;;;;6.80;3.70;;;8.90;99.90;;;;;;4973601;28;20205;-69
2022/05/04 05:21:42;;;;;;;6.88;4.20;;;8.80;99.90;;;;;;4972070;28;20232;-69
2022/05/04 05:24:10;;;;;;;6.05;3.75;;;8.60;99.90;;;;;;4973652;28;20212;-69
2022/05/04 05:26:37;;;;;;;3.63;3.40;;;8.40;99.90;;;;;;4973104;28;20635;-69
2022/05/04 05:29:03;;;;;;;6.05;3.63;;;8.40;99.90;;;;;;4969678;28;20648;-69
2022/05/04 05:31:30;;;;;;;3.80;3.40;;;8.30;99.90;;;;;;4952096;29;20229;-69
2022/05/04 05:33:56;;;;;;;4.53;3.58;;;8.30;99.90;;;;;;4953978;28;20666;-69
2022/05/04 05:36:23;;;;;;;7.13;3.83;;;8.20;99.90;;;;;;4953131;28;20635;-69
2022/05/04 05:38:50;;;;;;;7.10;4.35;;;8.20;99.90;;;;;;4953786;28;20626;-69
2022/05/04 05:41:18;;;;;;;5.75;3.97;;;8.20;99.90;;;;;;4952972;28;20737;-69
2022/05/04 05:43:44;;;;;;;4.00;3.67;;;8.10;99.90;;;;;;4954253;28;20217;-69
2022/05/04 05:46:11;;;;;;;11.85;3.95;;;8.10;99.90;;;;;;4953721;28;20233;-69
2022/05/04 05:48:38;;;;;;;4.65;3.80;;;8.10;99.90;;;;;;4954963;28;20205;-69
2022/05/04 05:51:05;;;;;;;5.65;4.20;;;8.10;99.90;;;;;;4952988;28;20232;-69
2022/05/04 05:53:31;;;;;;;6.15;5.55;;;8.10;99.90;;;;;;4954497;28;20205;-69
2022/05/04 05:55:58;;;;;;;4.68;4.18;;;8.10;99.90;;;;;;4954783;28;20623;-69
2022/05/04 05:58:26;;;;;;;24.20;14.68;;;8.20;99.90;;;;;;4954596;28;20676;-69
2022/05/04 06:00:53;;;;;;;5.50;5.00;;;8.60;99.90;;;;;;4948220;28;20237;-69
2022/05/04 06:03:21;;;;;;;11.38;8.80;;;9.30;99.90;;;;;;4960598;28;20201;-69
2022/05/04 06:05:48;;;;;;;11.80;10.60;;;10.20;99.90;;;;;;4972185;28;20244;-69
2022/05/04 06:08:15;;;;;;;5.13;3.20;;;11.10;99.90;;;;;;4972830;28;20468;-70
2022/05/04 06:10:42;;;;;;;3.80;3.07;;;11.80;99.90;;;;;;4973102;28;20845;-70
2022/05/04 06:13:09;;;;;;;3.17;2.83;;;12.40;99.90;;;;;;4973115;28;20467;-70
2022/05/04 06:15:37;;;;;;;2.93;2.83;;;13.00;99.90;;;;;;4972866;28;20505;-70
2022/05/04 06:18:04;;;;;;;5.70;5.13;;;13.60;99.90;;;;;;4973056;28;20980;-70
2022/05/04 06:20:31;;;;;;;3.90;3.60;;;14.00;99.90;;;;;;4973039;28;20548;-70
2022/05/04 06:22:58;;;;;;;7.90;5.27;;;14.50;99.90;;;;;;4979012;28;20995;-70
2022/05/04 06:25:25;;;;;;;6.50;4.03;;;15.00;99.90;;;;;;4976612;28;20894;-70
2022/05/04 06:27:51;;;;;;;2.93;2.50;;;15.50;99.90;;;;;;4973715;28;20495;-70
2022/05/04 06:35:48;;;;;;;3.30;2.30;;;16.40;99.90;;;;;;4971765;28;20494;-70
2022/05/04 06:38:14;;;;;;;4.60;2.20;;;16.70;99.90;;;;;;4972931;28;20464;-70
2022/05/04 06:40:41;;;;;;;2.47;2.27;;;16.90;99.90;;;;;;4961372;28;20900;-70
2022/05/04 06:43:09;;;;;;;2.43;2.27;;;17.20;99.90;;;;;;4972107;28;20541;-70
2022/05/04 06:45:35;;;;;;;3.57;1.90;;;17.40;99.90;;;;;;4971991;28;20463;-70
2022/05/04 06:48:04;;;;;;;5.07;2.10;;;17.30;99.00;;;;;;4972025;28;20496;-70
2022/05/04 06:50:31;;;;;;;3.30;1.90;;;17.40;98.60;;;;;;4970782;28;20477;-70
2022/05/04 06:52:58;;;;;;;4.20;2.07;;;17.80;98.20;;;;;;4971873;28;20468;-70
2022/05/04 06:55:24;;;;;;;1.60;1.30;;;18.20;97.50;;;;;;4971851;28;20507;-70
2022/05/04 06:57:51;;;;;;;4.33;2.47;;;18.50;96.30;;;;;;4971818;28;20497;-70
2022/05/04 07:00:18;;;;;;;2.53;2.43;;;18.70;95.40;;;;;;4970805;28;20551;-70
2022/05/04 07:02:45;;;;;;;3.90;1.80;;;18.90;95.30;;;;;;4971927;28;20460;-70
2022/05/04 07:05:13;;;;;;;3.33;1.97;;;18.50;94.90;;;;;;4971241;28;20534;-70
2022/05/04 07:07:41;;;;;;;3.80;1.50;;;18.70;94.30;;;;;;4972083;28;20493;-70
2022/05/04 07:10:09;;;;;;;2.10;2.00;;;19.00;94.00;;;;;;4971252;28;20466;-70
2022/05/04 07:12:36;;;;;;;3.40;1.70;;;18.90;93.60;;;;;;4972130;28;20555;-69
2022/05/04 07:15:03;;;;;;;1.13;1.13;;;19.00;92.70;;;;;;4972121;28;21256;-70
2022/05/04 07:17:30;;;;;;;3.30;1.53;;;19.10;92.30;;;;;;4972018;28;20469;-70
2022/05/04 07:19:56;;;;;;;2.13;1.37;;;19.00;91.80;;;;;;4972628;28;20468;-70
2022/05/04 07:22:24;;;;;;;1.77;1.57;;;18.80;91.70;;;;;;4976166;28;20485;-70
2022/05/04 07:24:52;;;;;;;1.70;1.50;;;18.90;91.20;;;;;;4975623;28;20467;-70
2022/05/04 07:27:18;;;;;;;4.73;1.97;;;19.00;91.10;;;;;;4975857;28;20487;-70
2022/05/04 07:29:46;;;;;;;2.03;1.60;;;18.80;91.00;;;;;;4968149;28;20464;-70
2022/05/04 07:32:14;;;;;;;2.00;1.87;;;18.20;91.30;;;;;;4975547;28;20539;-70
2022/05/04 07:34:41;;;;;;;2.03;1.93;;;17.70;91.90;;;;;;4975276;28;20902;-70
2022/05/04 07:37:08;;;;;;;4.23;2.60;;;17.40;92.10;;;;;;4975279;28;20881;-70
2022/05/04 07:42:35;;;;;;;2.30;2.10;;;16.80;93.10;;;;;;4934413;29;20532;-70
2022/05/04 07:45:03;;;;;;;2.20;2.03;;;16.50;93.80;;;;;;4934593;29;20505;-70
2022/05/04 07:47:32;;;;;;;2.83;2.57;;;16.10;94.40;;;;;;4952575;28;20499;-69
2022/05/04 07:49:59;;;;;;;3.17;2.90;;;15.80;94.60;;;;;;4973794;28;20467;-69
2022/05/04 07:52:26;;;;;;;4.80;2.50;;;15.60;95.30;;;;;;4975095;28;20538;-69
2022/05/04 07:54:54;;;;;;;2.30;2.20;;;15.60;95.60;;;;;;4975283;28;20467;-69
2022/05/04 07:57:21;;;;;;;4.23;3.27;;;15.40;96.50;;;;;;4975469;28;20878;-69
2022/05/04 08:04:16;;;;;;;2.93;2.70;;;15.20;96.80;;;;;;4974595;28;20820;-70
2022/05/04 08:05:22;;;;;;;4.07;2.70;;;14.90;98.40;;;;;;4974348;28;20526;-69
2022/05/04 08:07:49;;;;;;;3.23;2.93;;;15.00;98.40;;;;;;4975103;28;20494;-68
2022/05/04 08:10:17;;;;;;;2.53;2.33;;;15.10;98.90;;;;;;4974350;28;20464;-69
2022/05/04 08:12:44;;;;;;;3.80;2.77;;;15.10;99.10;;;;;;4975179;28;20522;-69
2022/05/04 08:15:12;;;;;;;6.27;2.93;;;14.90;99.30;;;;;;4974630;28;20471;-69
2022/05/04 08:17:39;;;;;;;2.70;2.60;;;14.90;99.40;;;;;;4975511;28;20474;-69
2022/05/04 08:20:07;;;;;;;2.80;2.70;;;14.80;99.30;;;;;;4973806;28;20907;-69
2022/05/04 08:22:33;;;;;;;2.73;2.53;;;14.80;99.30;;;;;;4975073;28;20943;-69
2022/05/04 08:25:00;;;;;;;4.30;2.50;;;14.80;99.30;;;;;;4974854;28;20536;-69
2022/05/04 08:27:29;;;;;;;3.80;2.90;;;14.80;99.20;;;;;;4974785;28;20488;-69
2022/05/04 08:29:55;;;;;;;2.87;2.67;;;14.60;99.50;;;;;;4973815;28;20463;-70
2022/05/04 08:32:22;;;;;;;2.73;2.63;;;14.50;99.90;;;;;;4975155;28;21034;-69
2022/05/04 08:34:48;;;;;;;4.80;3.80;;;14.40;99.90;;;;;;4974471;28;20978;-69
2022/05/04 08:37:15;;;;;;;5.13;4.73;;;14.40;99.90;;;;;;4976563;28;20519;-69
2022/05/04 08:39:42;;;;;;;2.60;2.47;;;14.30;99.90;;;;;;4973377;28;20467;-69
2022/05/04 08:42:10;;;;;;;4.50;4.20;;;14.40;99.90;;;;;;4966822;28;20476;-69
2022/05/04 08:44:40;;;;;;;3.17;3.00;;;14.40;99.90;;;;;;4975477;28;20503;-71
2022/05/04 08:47:12;;;;;;;2.90;2.70;;;14.40;99.90;;;;;;4974830;28;20602;-71
2022/05/04 08:49:41;;;;;;;3.00;2.90;;;14.50;99.90;;;;;;4974100;28;20840;-69
2022/05/04 08:52:08;;;;;;;3.53;3.30;;;14.50;99.90;;;;;;4974455;28;20538;-69
2022/05/04 08:54:35;;;;;;;4.47;3.47;;;14.50;99.90;;;;;;4974658;28;20467;-69
2022/05/04 08:57:02;;;;;;;3.53;3.30;;;14.50;99.90;;;;;;4974826;28;20467;-70
2022/05/04 08:59:29;;;;;;;3.37;3.10;;;14.60;99.90;;;;;;4975090;28;20471;-69
2022/05/04 09:01:57;;;;;;;5.97;5.57;;;14.60;99.90;;;;;;4974028;28;20507;-69
2022/05/04 09:04:24;;;;;;;6.20;4.00;;;14.70;99.90;;;;;;4974467;28;20885;-68
2022/05/04 09:06:50;;;;;;;7.67;3.73;;;14.80;99.90;;;;;;4973124;28;20905;-69
2022/05/04 09:09:17;;;;;;;3.90;3.23;;;14.70;99.90;;;;;;4973997;28;20459;-69
2022/05/04 09:11:45;;;;;;;8.67;3.20;;;14.70;99.90;;;;;;4973444;28;21151;-69
2022/05/04 09:14:14;;;;;;;3.67;3.47;;;14.60;99.90;;;;;;4974076;28;20468;-69
2022/05/04 09:16:41;;;;;;;3.80;3.43;;;14.60;99.90;;;;;;4974011;28;20518;-69
2022/05/04 09:19:10;;;;;;;4.53;4.20;;;14.60;99.90;;;;;;4973992;28;20518;-69
2022/05/04 09:21:38;;;;;;;3.90;3.60;;;14.70;99.90;;;;;;4972246;28;20487;-69
2022/05/04 09:24:06;;;;;;;4.73;4.40;;;14.60;99.90;;;;;;4973849;28;20467;-69
2022/05/04 09:26:38;;;;;;;5.30;3.10;;;14.60;99.90;;;;;;4974219;28;20592;-68
2022/05/04 09:29:06;;;;;;;7.53;3.13;;;14.80;99.90;;;;;;4971947;28;20460;-69
2022/05/04 09:31:33;;;;;;;3.07;2.73;;;15.00;99.90;;;;;;4961044;28;20480;-69
2022/05/04 09:34:02;;;;;;;6.23;3.33;;;15.20;99.90;;;;;;4954861;28;20983;-69
2022/05/04 09:36:35;;;;;;;5.17;3.20;;;15.40;99.90;;;;;;4953380;28;20468;-68
2022/05/04 09:45:07;;;;;;;6.60;4.10;;;15.70;99.90;;;;;;4953806;29;20452;-69
2022/05/04 09:47:37;;;;;;;4.87;4.47;;;15.90;99.70;;;;;;4954244;28;20492;-69
2022/05/04 09:50:05;;;;;;;4.93;4.50;;;16.00;99.70;;;;;;4952221;28;20480;-69
2022/05/04 09:52:42;;;;;;;3.80;3.40;;;16.10;98.80;;;;;;4953893;28;20492;-69
2022/05/04 09:55:16;;;;;;;4.53;4.23;;;16.10;99.50;;;;;;4953758;28;20464;-69
2022/05/04 09:57:43;;;;;;;5.87;5.37;;;16.20;98.30;;;;;;4954028;28;20464;-69
2022/05/04 10:00:12;;;;;;;6.60;5.10;;;16.20;98.80;;;;;;4953313;28;20527;-69
2022/05/04 10:02:39;;;;;;;3.47;3.13;;;16.30;99.10;;;;;;4957388;28;20459;-69
2022/05/04 10:05:08;;;;;;;5.07;4.60;;;16.30;98.70;;;;;;4957336;28;20468;-69
2022/05/04 10:07:36;;;;;;;9.73;3.63;;;16.40;98.90;;;;;;4953894;28;20520;-69
2022/05/04 10:10:07;;;;;;;5.70;3.87;;;16.40;98.40;;;;;;4954162;28;20539;-69
2022/05/04 10:12:38;;;;;;;4.40;3.80;;;16.40;98.30;;;;;;4959347;28;20480;-69
2022/05/04 10:15:08;;;;;;;3.50;3.20;;;16.30;98.40;;;;;;4957567;28;20465;-68
2022/05/04 10:17:37;;;;;;;4.70;4.30;;;16.30;99.00;;;;;;4954936;28;21007;-68
2022/05/04 10:20:11;;;;;;;4.60;3.50;;;16.40;98.40;;;;;;4951922;28;20964;-69
2022/05/04 10:22:40;;;;;;;11.87;3.70;;;16.40;98.10;;;;;;4953701;28;20850;-68
2022/05/04 10:25:09;;;;;;;4.83;4.37;;;16.30;98.30;;;;;;4952972;28;20907;-68
2022/05/04 10:27:40;;;;;;;3.63;3.53;;;16.30;98.50;;;;;;4953327;28;21016;-69
2022/05/04 10:32:58;;;;;;;4.33;3.50;;;16.30;98.70;;;;;;4953258;29;20922;-69
2022/05/04 10:35:42;;;;;;;5.10;4.13;;;16.50;98.40;;;;;;4952711;28;20468;-70
2022/05/04 10:38:17;;;;;;;4.37;3.70;;;16.70;98.70;;;;;;4953170;28;20464;-69
2022/05/04 10:40:47;;;;;;;4.40;3.83;;;16.70;97.80;;;;;;4952433;28;20488;-69
2022/05/04 10:43:16;;;;;;;4.03;3.63;;;16.80;97.70;;;;;;4952840;28;20567;-68
2022/05/04 10:45:44;;;;;;;3.87;3.63;;;16.90;97.50;;;;;;4953133;28;20821;-69
2022/05/04 10:48:35;;;;;;;3.60;3.30;;;16.90;97.20;;;;;;4953282;28;20612;-69
2022/05/04 10:51:11;;;;;;;4.20;3.83;;;17.10;97.40;;;;;;4954089;28;20487;-68
2022/05/04 10:53:41;;;;;;;4.47;4.07;;;17.10;96.70;;;;;;4960117;28;20528;-68
2022/05/04 10:56:12;;;;;;;3.80;3.50;;;16.90;96.80;;;;;;4953097;28;20460;-69
2022/05/04 10:58:43;;;;;;;4.37;4.07;;;16.90;96.70;;;;;;4953404;28;20479;-69
2022/05/04 11:01:18;;;;;;;5.40;4.97;;;16.80;97.00;;;;;;4952235;28;20567;-69
2022/05/04 11:04:05;;;;;;;7.20;6.50;;;16.90;97.40;;;;;;4953165;28;20518;-68
2022/05/04 11:06:33;;;;;;;3.83;3.53;;;17.00;96.70;;;;;;4952114;28;20461;-69
2022/05/04 11:09:06;;;;;;;3.63;3.43;;;17.10;96.70;;;;;;4953255;28;20492;-70
2022/05/04 11:11:34;;;;;;;3.80;3.70;;;17.30;96.90;;;;;;4952018;28;21012;-69
2022/05/04 11:14:01;;;;;;;6.93;5.10;;;17.30;96.90;;;;;;4953275;28;20502;-69
2022/05/04 11:16:29;;;;;;;3.60;3.40;;;17.50;96.90;;;;;;4952641;28;20469;-70
2022/05/04 11:18:57;;;;;;;3.77;3.57;;;17.40;97.20;;;;;;4952943;28;20564;-70
2022/05/04 11:21:26;;;;;;;4.37;4.17;;;17.30;96.60;;;;;;4951997;28;20493;-67
2022/05/04 11:23:56;;;;;;;4.07;3.67;;;17.30;96.40;;;;;;4952821;28;20465;-68
2022/05/04 11:26:24;;;;;;;4.17;3.93;;;17.30;97.00;;;;;;4952534;28;20467;-68
2022/05/04 11:28:53;;;;;;;5.60;4.80;;;17.20;96.90;;;;;;4952491;28;20804;-69
2022/05/04 11:31:22;;;;;;;4.43;4.13;;;17.30;96.90;;;;;;4957814;28;20485;-69
2022/05/04 11:33:50;;;;;;;8.37;4.10;;;17.40;96.60;;;;;;4953081;28;20471;-69
2022/05/04 11:36:19;;;;;;;6.30;3.77;;;17.40;96.60;;;;;;4951972;28;20472;-69
2022/05/04 11:38:47;;;;;;;4.50;3.73;;;17.40;96.70;;;;;;4952680;28;20469;-69
2022/05/04 11:41:14;;;;;;;4.50;4.10;;;17.40;96.30;;;;;;4952229;28;20489;-69
2022/05/04 11:43:41;;;;;;;7.43;5.50;;;17.50;96.50;;;;;;4952419;28;20824;-70
2022/05/04 11:46:12;;;;;;;5.97;4.13;;;17.50;96.30;;;;;;4952664;28;20476;-70
2022/05/04 11:48:42;;;;;;;11.77;8.20;;;17.50;96.10;;;;;;4952551;28;21004;-69
2022/05/04 11:51:09;;;;;;;5.83;5.23;;;17.50;95.90;;;;;;4951104;28;20489;-70
2022/05/04 11:53:36;;;;;;;23.90;19.03;;;17.60;96.40;;;;;;4952592;28;20571;-67
2022/05/04 11:56:04;;;;;;;5.63;5.23;;;17.50;96.00;;;;;;4952753;28;20524;-68
2022/05/04 11:58:33;;;;;;;4.63;4.10;;;17.40;96.70;;;;;;4953089;28;20836;-68
2022/05/04 12:01:01;;;;;;;13.10;8.33;;;17.30;96.20;;;;;;4946287;28;20497;-68
2022/05/04 12:03:31;;;;;;;9.33;7.53;;;17.30;96.50;;;;;;4968498;28;20468;-69
2022/05/04 12:06:00;;;;;;;7.67;6.83;;;17.30;96.40;;;;;;4973158;28;20566;-68
2022/05/04 12:08:27;;;;;;;6.00;4.90;;;17.40;96.70;;;;;;4975346;28;20905;-69
2022/05/04 12:10:55;;;;;;;5.27;4.97;;;17.30;96.40;;;;;;4974679;28;20844;-68
2022/05/04 12:13:23;;;;;;;12.27;6.47;;;17.40;96.60;;;;;;4975096;28;20488;-69
2022/05/04 12:15:54;;;;;;;4.40;4.07;;;17.50;96.80;;;;;;4975019;28;20471;-69
2022/05/04 12:18:21;;;;;;;16.83;10.70;;;17.70;96.40;;;;;;4975060;28;20713;-68
2022/05/04 12:20:50;;;;;;;4.90;4.50;;;17.80;96.10;;;;;;4973248;28;21004;-68
2022/05/04 12:23:16;;;;;;;5.27;4.90;;;17.90;96.30;;;;;;4974473;28;21023;-69
2022/05/04 12:25:43;;;;;;;6.50;6.10;;;18.00;96.00;;;;;;4974749;28;20948;-69
2022/05/04 12:28:11;;;;;;;4.17;3.80;;;18.00;96.00;;;;;;4974796;28;20488;-68
2022/05/04 12:33:33;;;;;;;5.70;5.23;;;17.90;96.30;;;;;;4975123;28;20514;-69
2022/05/04 12:36:04;;;;;;;4.77;4.43;;;17.90;96.60;;;;;;4974215;28;20471;-68
2022/05/04 12:38:32;;;;;;;6.70;6.10;;;18.00;96.40;;;;;;4974663;28;20826;-70
2022/05/04 12:41:00;;;;;;;4.43;3.90;;;18.00;96.10;;;;;;4974246;28;20557;-71
2022/05/04 12:43:30;;;;;;;3.87;3.67;;;17.90;95.60;;;;;;4975483;28;20496;-68
2022/05/04 12:45:57;;;;;;;3.97;3.67;;;17.90;95.80;;;;;;4974773;28;20463;-69
2022/05/04 12:48:26;;;;;;;3.80;3.60;;;17.80;95.70;;;;;;4974885;28;20495;-69
2022/05/04 12:50:54;;;;;;;3.57;3.37;;;17.80;95.70;;;;;;4962477;28;20490;-69
2022/05/04 12:53:25;;;;;;;3.63;3.43;;;17.90;95.90;;;;;;4957715;28;20476;-69
2022/05/04 12:58:52;;;;;;;4.00;3.70;;;17.80;95.80;;;;;;4897494;29;20510;-70
2022/05/04 13:01:22;;;;;;;4.37;3.50;;;17.80;95.70;;;;;;4895582;29;20560;-69
2022/05/04 13:03:50;;;;;;;3.40;3.20;;;17.90;95.50;;;;;;4922761;28;20461;-69
2022/05/04 13:06:17;;;;;;;3.50;3.30;;;17.90;95.70;;;;;;4954250;28;20476;-69
2022/05/04 13:08:46;;;;;;;4.47;3.60;;;18.00;95.40;;;;;;4954660;28;20492;-69
2022/05/04 13:11:13;;;;;;;4.50;4.07;;;18.20;95.40;;;;;;4953762;28;20575;-68
2022/05/04 13:13:39;;;;;;;6.53;3.70;;;18.30;95.50;;;;;;4954502;28;20492;-68
2022/05/04 13:16:06;;;;;;;4.70;4.30;;;18.30;94.70;;;;;;4953984;28;20591;-68
2022/05/04 13:18:33;;;;;;;4.07;3.67;;;18.10;94.50;;;;;;4953391;28;20465;-68
2022/05/04 13:21:00;;;;;;;6.20;3.90;;;18.10;94.90;;;;;;4952542;28;20488;-68
2022/05/04 13:23:26;;;;;;;3.87;3.50;;;18.10;95.40;;;;;;4953921;28;20473;-69
2022/05/04 13:25:54;;;;;;;4.93;4.43;;;18.00;95.20;;;;;;4953829;28;21020;-69
2022/05/04 13:28:22;;;;;;;4.60;3.60;;;18.00;95.40;;;;;;4954176;28;20488;-68
2022/05/04 13:30:49;;;;;;;5.23;3.80;;;18.10;95.10;;;;;;4963386;28;20499;-69
2022/05/04 13:33:15;;;;;;;3.50;3.20;;;18.10;95.10;;;;;;4973149;28;20495;-69
2022/05/04 13:35:42;;;;;;;6.10;3.73;;;18.00;95.40;;;;;;4972253;28;20872;-69
2022/05/04 13:38:09;;;;;;;4.27;3.87;;;18.00;95.10;;;;;;4973204;28;20467;-69
2022/05/04 13:40:36;;;;;;;4.37;4.07;;;17.90;94.90;;;;;;4972504;28;20591;-69
2022/05/04 13:43:04;;;;;;;3.70;3.60;;;17.80;94.70;;;;;;4973391;28;20877;-68
2022/05/04 13:45:31;;;;;;;4.30;3.77;;;17.60;95.60;;;;;;4972853;28;20459;-69
2022/05/04 13:47:58;;;;;;;4.33;4.03;;;17.60;96.20;;;;;;4973307;28;20514;-69
2022/05/04 13:53:18;;;;;;;5.90;3.77;;;17.50;95.50;;;;;;4973607;28;20956;-69
2022/05/04 13:55:47;;;;;;;3.90;3.60;;;17.50;95.50;;;;;;4972928;28;20837;-68
2022/05/04 13:58:16;;;;;;;4.40;3.93;;;17.50;95.70;;;;;;4973375;28;20467;-69
2022/05/04 14:00:44;;;;;;;4.53;4.23;;;17.50;96.30;;;;;;4974243;28;20996;-69
2022/05/04 14:03:11;;;;;;;5.30;4.80;;;17.30;95.30;;;;;;4975212;28;20599;-69
2022/05/04 14:05:39;;;;;;;5.20;4.80;;;17.30;96.10;;;;;;4972778;28;20493;-69
2022/05/04 14:08:06;;;;;;;4.70;4.40;;;17.30;96.10;;;;;;4972917;28;20870;-70
2022/05/04 14:10:35;;;;;;;4.03;3.83;;;17.30;96.00;;;;;;4971607;28;21174;-69
2022/05/04 14:13:02;;;;;;;4.40;4.07;;;17.40;95.90;;;;;;4972334;28;21023;-70
2022/05/04 14:15:30;;;;;;;4.57;4.17;;;17.40;96.10;;;;;;4972413;28;20967;-69
2022/05/04 14:17:57;;;;;;;4.40;4.10;;;17.40;96.00;;;;;;4972154;28;20475;-69
2022/05/04 14:20:24;;;;;;;5.30;4.80;;;17.60;96.00;;;;;;4955314;28;20464;-70
2022/05/04 14:22:51;;;;;;;4.43;3.60;;;17.70;95.50;;;;;;4972154;28;20948;-69
2022/05/04 14:25:17;;;;;;;6.70;4.43;;;17.70;95.80;;;;;;4971971;28;20555;-71
2022/05/04 14:27:45;;;;;;;3.87;3.23;;;17.80;95.30;;;;;;4971940;28;20467;-69
2022/05/04 14:30:12;;;;;;;3.90;3.70;;;17.80;95.70;;;;;;4955649;28;20617;-71
2022/05/04 14:32:40;;;;;;;6.30;4.73;;;17.90;95.60;;;;;;4962039;28;20543;-68
2022/05/04 14:35:07;;;;;;;4.27;4.10;;;18.00;95.50;;;;;;4971234;28;20515;-70
2022/05/04 14:37:34;;;;;;;7.10;4.33;;;18.00;95.30;;;;;;4960086;28;20543;-70
2022/05/04 14:40:01;;;;;;;6.20;3.50;;;17.80;95.70;;;;;;4950934;28;20519;-68
2022/05/04 14:42:28;;;;;;;5.30;4.60;;;17.90;95.60;;;;;;4952938;28;20491;-69
2022/05/04 14:44:55;;;;;;;5.00;4.50;;;18.00;95.20;;;;;;4950622;28;20535;-68
2022/05/04 14:47:22;;;;;;;5.73;4.73;;;17.70;95.20;;;;;;4957751;28;20878;-68
2022/05/04 14:49:50;;;;;;;5.30;4.10;;;17.60;95.40;;;;;;4957681;28;20546;-68
2022/05/04 14:52:16;;;;;;;5.20;4.83;;;17.50;95.90;;;;;;4942128;28;20503;-71
2022/05/04 14:54:43;;;;;;;4.53;4.23;;;17.50;95.90;;;;;;4963472;28;20968;-70
2022/05/04 14:57:10;;;;;;;4.77;4.27;;;17.60;96.30;;;;;;4940304;28;20533;-68
2022/05/04 14:59:37;;;;;;;5.10;4.27;;;17.80;96.20;;;;;;4947154;28;20460;-68
2022/05/04 15:02:05;;;;;;;4.23;3.83;;;17.80;96.30;;;;;;4952732;28;20936;-70
2022/05/04 15:07:18;;;;;;;5.33;4.83;;;18.10;95.90;;;;;;4952740;29;20452;-72
2022/05/04 15:09:45;;;;;;;5.27;4.63;;;18.10;95.30;;;;;;4953666;28;20575;-69
2022/05/04 15:12:12;;;;;;;4.40;4.10;;;18.10;95.90;;;;;;4968399;28;20587;-69
2022/05/04 15:14:39;;;;;;;5.00;4.60;;;18.10;95.90;;;;;;4933907;28;20504;-69
2022/05/04 15:17:05;;;;;;;9.27;5.17;;;18.10;95.20;;;;;;4943910;28;20527;-70
2022/05/04 15:19:34;;;;;;;4.23;4.00;;;17.90;94.80;;;;;;4956734;28;20473;-70
2022/05/04 15:22:01;;;;;;;5.47;4.80;;;18.10;95.20;;;;;;4964987;28;20849;-71
2022/05/04 15:24:29;;;;;;;4.80;4.40;;;18.10;94.80;;;;;;4976847;28;20529;-70
2022/05/04 15:26:55;;;;;;;13.80;8.90;;;18.20;95.20;;;;;;4978572;28;20906;-70
2022/05/04 15:29:22;;;;;;;8.60;4.07;;;18.30;95.20;;;;;;4972677;28;20548;-70
2022/05/04 15:31:50;;;;;;;7.60;4.90;;;18.30;95.10;;;;;;4968930;28;20489;-70
2022/05/04 15:34:17;;;;;;;4.40;4.00;;;18.20;95.10;;;;;;4953125;28;20660;-70
2022/05/04 15:36:44;;;;;;;4.47;4.10;;;18.30;95.30;;;;;;4951668;28;20540;-70
2022/05/04 15:39:11;;;;;;;27.70;16.93;;;18.40;95.20;;;;;;4952767;28;20642;-70
2022/05/04 15:41:40;;;;;;;5.40;5.00;;;18.50;94.80;;;;;;4954892;28;20484;-70
2022/05/04 15:44:07;;;;;;;4.70;4.20;;;18.50;94.70;;;;;;4956383;28;20492;-70
2022/05/04 15:46:34;;;;;;;4.40;4.13;;;18.40;94.80;;;;;;4956301;28;20468;-70
2022/05/04 15:49:01;;;;;;;5.23;4.10;;;18.30;94.80;;;;;;4956163;28;20493;-70
2022/05/04 15:51:29;;;;;;;5.77;4.27;;;18.20;95.10;;;;;;4954360;28;20547;-70
2022/05/04 15:53:56;;;;;;;4.37;4.00;;;18.10;95.00;;;;;;4956396;28;20807;-69
2022/05/04 15:56:23;;;;;;;4.67;4.00;;;18.10;95.10;;;;;;4955826;28;20973;-69
2022/05/04 15:58:51;;;;;;;4.73;4.43;;;18.00;95.40;;;;;;4956110;28;20474;-70
2022/05/04 16:01:18;;;;;;;4.20;3.90;;;18.10;95.70;;;;;;4954850;28;20496;-70
2022/05/04 16:04:00;;;;;;;5.30;4.50;;;18.20;95.50;;;;;;4955791;28;20542;-70
2022/05/04 16:06:28;;;;;;;5.47;5.10;;;18.30;95.30;;;;;;4955065;28;20500;-70
2022/05/04 16:08:55;;;;;;;5.00;4.73;;;18.20;95.10;;;;;;4955578;28;21033;-70
2022/05/04 16:11:22;;;;;;;4.90;4.50;;;18.10;95.50;;;;;;4955195;28;20846;-70
2022/05/04 16:13:48;;;;;;;7.80;7.00;;;18.10;95.60;;;;;;4956051;28;20468;-69
2022/05/04 16:16:16;;;;;;;5.73;4.23;;;18.20;95.20;;;;;;4955392;28;20942;-70
2022/05/04 16:21:44;;;;;;;4.40;4.10;;;18.30;95.10;;;;;;4960385;28;20603;-69
2022/05/04 16:24:15;;;;;;;7.67;4.20;;;18.30;94.80;;;;;;4956974;28;20651;-69
2022/05/04 16:26:43;;;;;;;5.30;4.90;;;18.20;94.70;;;;;;4958380;28;20515;-69
2022/05/04 16:29:11;;;;;;;5.32;5.00;;;18.10;95.00;;;;;;4941058;28;20472;-69
2022/05/04 16:31:41;;;;;;;5.10;4.57;;;18.00;95.40;;;;;;4965100;28;20758;-69
2022/05/04 16:34:08;;;;;;;5.37;3.70;;;17.80;95.40;;;;;;4974807;28;20555;-69
2022/05/04 16:36:35;;;;;;;4.37;4.07;;;17.80;95.80;;;;;;4973269;28;20791;-69
2022/05/04 16:39:02;;;;;;;4.23;4.00;;;17.70;95.70;;;;;;4974306;28;20468;-69
2022/05/04 16:41:29;;;;;;;7.30;4.90;;;17.70;95.90;;;;;;4973511;28;20834;-69
2022/05/04 16:43:56;;;;;;;6.13;4.10;;;17.70;95.80;;;;;;4974531;28;20486;-69
2022/05/04 16:46:23;;;;;;;4.40;4.17;;;17.80;96.20;;;;;;4966313;28;20457;-69
2022/05/04 16:48:51;;;;;;;4.80;3.67;;;17.80;96.00;;;;;;4952357;28;20492;-69
2022/05/04 16:51:19;;;;;;;4.70;4.33;;;17.80;96.10;;;;;;4946498;28;20484;-69
2022/05/04 16:53:47;;;;;;;3.80;3.60;;;17.80;95.70;;;;;;4952812;28;20464;-69
2022/05/04 16:56:13;;;;;;;5.20;4.80;;;17.80;96.20;;;;;;4941443;28;20473;-69
2022/05/04 16:58:40;;;;;;;3.83;3.67;;;17.80;95.50;;;;;;4959230;28;20465;-69
2022/05/04 17:01:07;;;;;;;5.30;3.93;;;17.60;95.70;;;;;;4953952;28;20492;-69
2022/05/04 17:03:34;;;;;;;5.00;4.63;;;17.60;95.90;;;;;;4954478;28;20464;-68
2022/05/04 17:06:03;;;;;;;5.10;4.60;;;17.60;96.00;;;;;;4953827;28;20480;-68
2022/05/04 17:08:30;;;;;;;4.40;4.00;;;17.50;95.80;;;;;;4954309;28;20848;-68
2022/05/04 17:10:57;;;;;;;4.53;4.20;;;17.50;95.70;;;;;;4954910;28;20496;-69
2022/05/04 17:13:25;;;;;;;4.50;4.20;;;17.50;96.00;;;;;;4942368;28;20537;-68
2022/05/04 17:15:51;;;;;;;4.87;4.47;;;17.40;95.40;;;;;;4965378;28;20541;-69
2022/05/04 17:18:18;;;;;;;4.40;4.10;;;17.30;95.70;;;;;;4973440;28;20542;-69
2022/05/04 17:20:45;;;;;;;6.67;5.40;;;17.30;96.00;;;;;;4971818;28;20484;-69
2022/05/04 17:23:13;;;;;;;6.30;4.40;;;17.20;95.90;;;;;;4973211;28;20456;-69
2022/05/04 17:25:40;;;;;;;4.10;3.90;;;17.10;95.60;;;;;;4973355;28;20463;-69
2022/05/04 17:28:07;;;;;;;4.53;4.33;;;17.00;95.70;;;;;;4973389;28;20472;-71
2022/05/04 17:30:33;;;;;;;4.83;4.03;;;16.80;95.40;;;;;;4972610;28;20484;-70